Time;durP1;ratioP1;P1;durP2;ratioP2;P2;SDS_P1;SDS_P2;PMS_P1;PMS_P2;Temp;Humidity;BMP_temperature;BMP_pressure;BME280_temperature;BME280_humidity;BME280_pressure;Samples;Min_cycle;Max_cycle;Signal;HPM_P1;HPM_P2
2023/06/06 00:00:16;;;;;;;0.87;0.83;;;14.20;88.40;;;;;;5054407;28;20419;-74
2023/06/06 00:02:43;;;;;;;0.60;0.60;;;14.20;90.10;;;;;;5054620;28;20401;-75
2023/06/06 00:05:13;;;;;;;2.37;2.10;;;14.10;90.50;;;;;;5053000;28;20535;-73
2023/06/06 00:07:45;;;;;;;0.80;0.70;;;14.10;91.10;;;;;;5054234;28;20733;-73
2023/06/06 00:10:12;;;;;;;1.43;1.10;;;14.10;90.70;;;;;;5054409;28;20415;-75
2023/06/06 00:12:41;;;;;;;1.37;1.37;;;14.10;91.00;;;;;;5054207;28;20417;-75
2023/06/06 00:15:07;;;;;;;1.23;1.13;;;14.00;91.30;;;;;;5054091;28;20516;-74
2023/06/06 00:17:33;;;;;;;2.93;1.03;;;14.00;91.50;;;;;;5053932;28;20486;-75
2023/06/06 00:20:00;;;;;;;1.33;1.23;;;13.90;91.80;;;;;;5054089;28;20401;-75
2023/06/06 00:22:26;;;;;;;1.60;1.20;;;13.90;92.00;;;;;;5054172;28;20175;-75
2023/06/06 00:24:52;;;;;;;0.80;0.60;;;13.90;91.40;;;;;;5053868;28;20417;-73
2023/06/06 00:27:19;;;;;;;1.70;1.60;;;13.90;91.50;;;;;;5053762;28;20638;-75
2023/06/06 00:29:44;;;;;;;0.90;0.90;;;13.90;91.90;;;;;;5053757;28;20399;-72
2023/06/06 00:32:10;;;;;;;1.13;1.03;;;13.80;92.20;;;;;;5053951;28;20773;-73
2023/06/06 00:34:35;;;;;;;1.20;1.00;;;13.70;92.00;;;;;;5053866;28;20194;-72
2023/06/06 00:37:01;;;;;;;1.10;1.10;;;13.80;91.20;;;;;;5053668;28;20236;-75
2023/06/06 00:39:28;;;;;;;0.70;0.70;;;13.80;91.40;;;;;;5053925;28;20193;-75
2023/06/06 00:41:53;;;;;;;3.60;2.13;;;13.80;91.90;;;;;;5053795;28;20205;-74
2023/06/06 00:44:20;;;;;;;1.50;1.07;;;13.90;92.40;;;;;;5053597;28;20483;-75
2023/06/06 00:46:47;;;;;;;1.10;1.03;;;13.90;92.30;;;;;;5053646;28;20173;-72
2023/06/06 00:49:14;;;;;;;2.00;1.37;;;13.80;92.90;;;;;;5053444;28;20432;-73
2023/06/06 00:51:42;;;;;;;1.60;1.17;;;13.70;93.40;;;;;;5053572;28;20432;-75
2023/06/06 00:54:12;;;;;;;1.37;0.97;;;13.70;94.00;;;;;;5053502;28;20796;-73
2023/06/06 00:56:39;;;;;;;1.27;1.17;;;13.50;94.10;;;;;;5053517;28;20547;-73
2023/06/06 00:59:06;;;;;;;2.00;1.30;;;13.40;95.00;;;;;;5053488;28;20400;-74
2023/06/06 01:01:34;;;;;;;1.50;1.17;;;13.40;95.30;;;;;;5053461;28;20431;-73
2023/06/06 01:04:02;;;;;;;1.80;0.97;;;13.40;95.80;;;;;;5053425;28;20861;-73
2023/06/06 01:06:33;;;;;;;1.10;0.93;;;13.50;95.60;;;;;;5053226;28;20401;-73
2023/06/06 01:09:04;;;;;;;1.00;0.90;;;13.50;95.80;;;;;;5053339;28;20411;-72
2023/06/06 01:11:40;;;;;;;1.33;1.30;;;13.40;96.30;;;;;;5053638;28;20802;-74
2023/06/06 01:14:18;;;;;;;2.50;1.60;;;13.40;96.60;;;;;;5053144;28;20476;-72
2023/06/06 01:16:49;;;;;;;3.97;2.17;;;13.40;96.80;;;;;;5053261;28;20518;-74
2023/06/06 01:19:27;;;;;;;1.57;1.20;;;13.30;96.80;;;;;;5053247;28;20397;-74
2023/06/06 01:21:54;;;;;;;0.90;0.90;;;13.20;97.00;;;;;;5053203;28;20455;-74
2023/06/06 01:24:21;;;;;;;1.63;1.40;;;13.20;96.30;;;;;;5053154;28;20455;-72
2023/06/06 01:26:47;;;;;;;1.30;1.20;;;13.20;96.30;;;;;;5052850;28;20425;-74
2023/06/06 01:29:12;;;;;;;3.70;2.10;;;13.30;96.60;;;;;;5053177;28;20416;-72
2023/06/06 01:31:46;;;;;;;2.03;1.93;;;13.20;96.90;;;;;;5053219;28;20298;-74
2023/06/06 01:34:26;;;;;;;1.60;1.27;;;13.20;96.90;;;;;;5053056;28;20198;-73
2023/06/06 01:37:21;;;;;;;0.80;0.80;;;13.10;97.20;;;;;;5052915;28;20454;-74
2023/06/06 01:39:51;;;;;;;1.30;1.20;;;13.10;96.70;;;;;;5053215;28;20408;-72
2023/06/06 01:42:18;;;;;;;1.43;1.33;;;13.00;97.00;;;;;;5052987;28;20797;-74
2023/06/06 01:44:45;;;;;;;0.80;0.80;;;13.00;97.40;;;;;;5052946;28;20800;-74
2023/06/06 01:47:12;;;;;;;1.50;1.03;;;13.00;97.40;;;;;;5053097;28;20428;-75
2023/06/06 01:49:38;;;;;;;1.00;1.00;;;12.90;97.50;;;;;;5056787;28;20493;-73
2023/06/06 01:52:06;;;;;;;1.67;1.57;;;12.90;97.80;;;;;;5057062;28;20443;-73
2023/06/06 01:54:34;;;;;;;0.77;0.77;;;12.80;98.40;;;;;;5056885;28;20425;-72
2023/06/06 01:57:00;;;;;;;2.13;1.90;;;12.90;98.10;;;;;;5056548;28;20497;-75
2023/06/06 01:59:26;;;;;;;2.30;2.03;;;12.90;98.00;;;;;;5056740;28;20432;-72
2023/06/06 02:01:52;;;;;;;0.87;0.87;;;13.00;98.20;;;;;;5056777;28;20453;-74
2023/06/06 02:04:17;;;;;;;1.17;1.07;;;12.90;98.40;;;;;;5056716;28;20503;-74
2023/06/06 02:06:43;;;;;;;2.73;2.53;;;12.90;98.50;;;;;;5056474;28;20166;-73
2023/06/06 02:09:10;;;;;;;0.93;0.90;;;12.90;98.60;;;;;;5056730;28;20255;-73
2023/06/06 02:11:36;;;;;;;1.90;1.80;;;12.80;98.60;;;;;;5056729;28;20168;-72
2023/06/06 02:14:02;;;;;;;1.60;1.20;;;12.60;98.80;;;;;;5056516;28;20507;-75
2023/06/06 02:16:29;;;;;;;3.23;2.93;;;12.60;99.00;;;;;;5056436;28;20217;-74
2023/06/06 02:18:56;;;;;;;1.00;1.00;;;12.70;98.80;;;;;;5056491;28;20750;-73
2023/06/06 02:21:21;;;;;;;0.70;0.70;;;12.60;98.80;;;;;;5056482;28;20405;-72
2023/06/06 02:23:47;;;;;;;1.87;1.77;;;12.50;99.90;;;;;;5056413;28;20400;-73
2023/06/06 02:26:12;;;;;;;6.90;2.10;;;12.50;99.00;;;;;;5056146;28;20627;-75
2023/06/06 02:28:38;;;;;;;0.70;0.70;;;12.60;98.70;;;;;;5056269;28;20181;-75
2023/06/06 02:31:04;;;;;;;1.07;1.03;;;12.60;98.80;;;;;;5056521;28;20173;-72
2023/06/06 02:33:30;;;;;;;2.37;1.63;;;12.50;99.00;;;;;;5056099;28;20189;-74
2023/06/06 02:35:55;;;;;;;1.30;1.30;;;12.40;99.40;;;;;;5054415;28;20197;-74
2023/06/06 02:38:22;;;;;;;1.00;1.00;;;12.40;99.20;;;;;;5055855;28;20445;-75
2023/06/06 02:40:47;;;;;;;1.63;1.53;;;12.40;99.30;;;;;;5055647;28;20551;-73
2023/06/06 02:43:13;;;;;;;2.20;1.50;;;12.20;99.60;;;;;;5055957;28;20396;-72
2023/06/06 02:45:38;;;;;;;3.77;1.60;;;12.20;99.90;;;;;;5054409;28;20238;-75
2023/06/06 02:48:04;;;;;;;1.10;1.10;;;12.20;99.90;;;;;;5055997;28;20297;-74
2023/06/06 02:50:31;;;;;;;1.30;1.20;;;12.20;99.90;;;;;;5055754;28;20186;-75
2023/06/06 02:53:00;;;;;;;1.50;1.37;;;12.10;99.90;;;;;;5055653;28;20410;-73
2023/06/06 02:55:26;;;;;;;1.30;1.20;;;12.10;99.90;;;;;;5055364;28;20453;-73
2023/06/06 02:57:51;;;;;;;1.20;1.10;;;12.10;99.90;;;;;;5055537;28;21026;-74
2023/06/06 03:00:17;;;;;;;2.43;2.33;;;12.20;99.90;;;;;;5054522;28;20528;-74
2023/06/06 03:02:43;;;;;;;0.83;0.83;;;12.20;99.90;;;;;;5055670;28;20174;-72
2023/06/06 03:05:09;;;;;;;1.50;1.40;;;12.20;99.90;;;;;;5054147;28;20197;-74
2023/06/06 03:07:37;;;;;;;1.87;1.73;;;12.20;99.90;;;;;;5055270;28;20232;-74
2023/06/06 03:10:03;;;;;;;2.97;1.37;;;12.10;99.90;;;;;;5055642;28;20413;-75
2023/06/06 03:12:29;;;;;;;0.67;0.67;;;12.00;99.90;;;;;;5055415;28;20401;-73
2023/06/06 03:14:54;;;;;;;2.10;1.30;;;12.00;99.90;;;;;;5055283;28;20420;-72
2023/06/06 03:17:20;;;;;;;2.50;2.30;;;12.00;99.90;;;;;;5055202;28;20190;-74
2023/06/06 03:19:48;;;;;;;1.10;1.10;;;12.00;99.90;;;;;;5055244;28;20167;-73
2023/06/06 03:22:17;;;;;;;4.10;1.63;;;12.00;99.90;;;;;;5055100;28;20162;-74
2023/06/06 03:24:45;;;;;;;1.70;1.60;;;12.00;99.90;;;;;;5055106;28;20424;-72
2023/06/06 03:27:11;;;;;;;4.17;3.77;;;11.90;99.90;;;;;;5054989;28;20986;-72
2023/06/06 03:29:38;;;;;;;2.13;1.93;;;11.90;99.90;;;;;;5055192;28;20446;-74
2023/06/06 03:32:05;;;;;;;2.30;1.17;;;11.80;99.90;;;;;;5055100;28;20409;-74
2023/06/06 03:34:30;;;;;;;1.37;1.27;;;11.80;99.90;;;;;;5055084;28;20447;-74
2023/06/06 03:36:56;;;;;;;2.97;2.77;;;11.80;99.90;;;;;;5054867;28;20935;-72
2023/06/06 03:39:22;;;;;;;1.33;1.00;;;11.90;99.90;;;;;;5054953;28;20173;-73
2023/06/06 03:41:48;;;;;;;1.50;1.40;;;11.90;99.90;;;;;;5052723;28;20397;-73
2023/06/06 03:44:14;;;;;;;2.07;1.97;;;;;;;;;;5052957;28;20186;-73
2023/06/06 03:46:39;;;;;;;2.50;1.37;;;12.00;99.90;;;;;;5054576;28;20201;-74
2023/06/06 03:49:05;;;;;;;2.77;1.30;;;11.90;99.90;;;;;;5054552;28;20806;-75
2023/06/06 03:51:30;;;;;;;2.33;1.80;;;12.00;99.90;;;;;;5054710;28;20257;-74
2023/06/06 03:53:56;;;;;;;1.07;0.87;;;12.20;99.90;;;;;;5054690;28;20166;-73
2023/06/06 03:56:23;;;;;;;0.60;0.60;;;11.90;99.90;;;;;;5054407;28;20666;-74
2023/06/06 03:58:49;;;;;;;1.97;1.90;;;11.80;99.90;;;;;;5054686;28;20174;-72
2023/06/06 04:01:15;;;;;;;2.47;2.27;;;11.80;99.90;;;;;;5054281;28;20432;-73
2023/06/06 04:03:42;;;;;;;1.67;1.63;;;;;;;;;;5054263;28;20820;-73
2023/06/06 04:06:08;;;;;;;1.90;1.80;;;12.00;99.90;;;;;;5054345;28;20568;-72
2023/06/06 04:08:35;;;;;;;2.83;2.07;;;12.10;99.90;;;;;;5054427;28;20431;-72
2023/06/06 04:11:00;;;;;;;1.00;1.00;;;12.10;99.90;;;;;;5054039;28;20404;-74
2023/06/06 04:13:26;;;;;;;1.33;1.23;;;12.20;99.90;;;;;;5054367;28;20397;-73
2023/06/06 04:15:52;;;;;;;3.10;2.90;;;12.30;99.90;;;;;;5053955;28;20198;-72
2023/06/06 04:18:18;;;;;;;1.57;1.47;;;12.30;99.90;;;;;;5054294;28;20460;-75
2023/06/06 04:20:44;;;;;;;1.13;1.13;;;12.30;99.90;;;;;;5054165;28;20178;-72
2023/06/06 04:23:10;;;;;;;5.80;1.90;;;12.30;99.90;;;;;;5054115;28;20173;-74
2023/06/06 04:25:36;;;;;;;2.40;2.20;;;12.40;99.90;;;;;;5053715;28;20428;-75
2023/06/06 04:28:02;;;;;;;1.70;1.60;;;12.40;99.90;;;;;;5054092;28;20190;-72
2023/06/06 04:30:29;;;;;;;2.27;2.07;;;12.70;99.90;;;;;;5053929;28;20407;-72
2023/06/06 04:32:55;;;;;;;1.90;1.77;;;13.00;99.90;;;;;;5054115;28;20170;-74
2023/06/06 04:35:21;;;;;;;2.03;1.20;;;13.40;99.90;;;;;;5053526;28;20440;-73
2023/06/06 04:37:47;;;;;;;2.10;2.00;;;;;;;;;;5053482;28;20479;-74
2023/06/06 04:40:14;;;;;;;1.83;1.73;;;14.00;98.90;;;;;;5053691;28;20174;-75
2023/06/06 04:42:40;;;;;;;2.17;2.07;;;14.20;99.10;;;;;;5053835;28;20916;-74
2023/06/06 04:45:06;;;;;;;2.83;1.63;;;14.30;98.70;;;;;;5053438;28;20465;-72
2023/06/06 04:47:32;;;;;;;2.07;1.97;;;14.30;98.50;;;;;;5053511;28;20901;-73
2023/06/06 04:49:58;;;;;;;3.10;2.87;;;14.40;98.40;;;;;;5053558;28;20468;-73
2023/06/06 04:52:24;;;;;;;1.53;1.30;;;14.70;98.40;;;;;;5051638;28;20424;-73
2023/06/06 04:54:51;;;;;;;2.07;1.97;;;14.90;97.80;;;;;;5051677;28;20439;-72
2023/06/06 04:57:17;;;;;;;3.30;3.10;;;15.00;97.10;;;;;;5053867;28;20509;-73
2023/06/06 04:59:47;;;;;;;1.93;1.83;;;15.10;96.80;;;;;;5053622;28;20888;-75
2023/06/06 05:02:12;;;;;;;1.67;1.57;;;15.30;96.90;;;;;;5053704;28;20408;-75
2023/06/06 05:04:40;;;;;;;1.57;1.47;;;15.40;96.10;;;;;;5053376;28;20466;-74
2023/06/06 05:07:07;;;;;;;1.90;1.80;;;15.60;95.70;;;;;;5053679;28;20181;-75
2023/06/06 05:09:33;;;;;;;0.90;0.90;;;15.90;95.60;;;;;;5053995;28;20463;-74
2023/06/06 05:11:59;;;;;;;2.23;2.03;;;16.00;95.50;;;;;;5053284;28;20412;-75
2023/06/06 05:14:24;;;;;;;1.97;1.87;;;16.10;95.70;;;;;;5053272;28;20599;-73
2023/06/06 05:16:53;;;;;;;1.67;1.40;;;16.30;95.00;;;;;;5050448;28;20216;-73
2023/06/06 05:19:19;;;;;;;1.40;1.33;;;16.50;94.90;;;;;;5053633;28;20162;-75
2023/06/06 05:21:44;;;;;;;3.13;1.80;;;16.60;94.60;;;;;;5052450;28;20437;-75
2023/06/06 05:24:10;;;;;;;3.53;3.27;;;16.60;94.50;;;;;;5049595;28;20452;-74
2023/06/06 05:26:36;;;;;;;1.30;1.10;;;16.60;94.20;;;;;;5052667;28;20448;-76
2023/06/06 05:29:02;;;;;;;1.20;1.10;;;16.70;95.10;;;;;;5053289;28;20440;-73
2023/06/06 05:31:28;;;;;;;1.23;1.23;;;16.70;94.30;;;;;;5053023;28;20253;-73
2023/06/06 05:33:54;;;;;;;1.50;1.20;;;17.20;99.90;;;;;;5053068;28;20178;-76
2023/06/06 05:36:20;;;;;;;2.07;1.97;;;17.10;94.60;;;;;;5052779;28;20170;-73
2023/06/06 05:38:46;;;;;;;1.50;1.40;;;17.20;94.40;;;;;;5050921;28;20472;-73
2023/06/06 05:41:14;;;;;;;2.00;1.80;;;17.30;94.40;;;;;;5052030;28;20409;-74
2023/06/06 05:43:44;;;;;;;0.57;0.57;;;17.00;94.40;;;;;;5051971;28;20249;-75
2023/06/06 05:46:10;;;;;;;1.67;1.57;;;17.60;94.30;;;;;;5050631;28;20902;-74
2023/06/06 05:48:35;;;;;;;0.57;0.57;;;17.90;93.70;;;;;;5049696;28;20460;-71
2023/06/06 05:51:01;;;;;;;2.13;2.03;;;18.00;93.30;;;;;;5050909;28;20582;-74
2023/06/06 05:53:28;;;;;;;1.80;1.50;;;18.10;93.10;;;;;;5051922;28;20177;-76
2023/06/06 05:55:53;;;;;;;1.23;1.13;;;18.30;93.00;;;;;;5052086;28;20233;-73
2023/06/06 05:58:20;;;;;;;0.80;0.80;;;18.50;93.20;;;;;;5052567;28;20486;-73
2023/06/06 06:00:45;;;;;;;1.23;1.13;;;18.70;93.10;;;;;;5052895;28;20533;-73
2023/06/06 06:03:12;;;;;;;1.83;1.73;;;18.90;92.70;;;;;;5052955;28;20406;-75
2023/06/06 06:05:38;;;;;;;0.83;0.83;;;19.20;92.40;;;;;;5052564;28;20198;-73
2023/06/06 06:08:06;;;;;;;1.83;1.73;;;19.70;91.50;;;;;;5052724;28;20458;-73
2023/06/06 06:10:34;;;;;;;0.73;0.73;;;20.30;90.60;;;;;;5052619;28;20662;-76
2023/06/06 06:13:00;;;;;;;1.17;0.97;;;21.40;90.10;;;;;;5052618;28;20424;-74
2023/06/06 06:15:29;;;;;;;1.77;1.67;;;22.80;86.10;;;;;;5052382;28;20435;-75
2023/06/06 06:17:55;;;;;;;0.90;0.90;;;24.00;81.70;;;;;;5052565;28;20444;-74
2023/06/06 06:20:20;;;;;;;1.13;1.10;;;24.30;75.10;;;;;;5052454;28;20404;-75
2023/06/06 06:22:46;;;;;;;1.30;1.20;;;24.50;76.60;;;;;;5052692;28;20681;-75
2023/06/06 06:25:12;;;;;;;0.70;0.70;;;25.30;71.50;;;;;;5052722;28;20276;-74
2023/06/06 06:27:41;;;;;;;0.97;0.97;;;25.90;70.30;;;;;;5052498;28;20504;-76
2023/06/06 06:30:09;;;;;;;2.43;1.20;;;26.80;67.20;;;;;;5051411;28;20927;-74
2023/06/06 06:32:37;;;;;;;1.60;1.40;;;27.90;63.80;;;;;;5052722;28;20817;-76
2023/06/06 06:35:03;;;;;;;1.73;1.20;;;29.30;59.60;;;;;;5055386;28;20942;-74
2023/06/06 06:37:30;;;;;;;1.90;1.00;;;30.50;56.10;;;;;;5055612;28;21010;-72
2023/06/06 06:39:56;;;;;;;1.20;1.10;;;31.00;51.40;;;;;;5056106;28;20467;-73
2023/06/06 06:42:22;;;;;;;0.97;0.97;;;31.40;50.80;;;;;;5055067;28;20412;-72
2023/06/06 06:44:48;;;;;;;4.57;1.30;;;31.70;49.90;;;;;;5055913;28;20514;-73
2023/06/06 06:47:14;;;;;;;0.90;0.90;;;31.30;47.50;;;;;;5055037;28;20409;-72
2023/06/06 06:49:40;;;;;;;0.97;0.97;;;30.70;48.90;;;;;;5055834;28;20424;-72
2023/06/06 06:52:15;;;;;;;1.37;1.10;;;30.50;48.70;;;;;;5055403;28;20181;-72
2023/06/06 06:54:54;;;;;;;1.97;1.50;;;30.10;48.60;;;;;;5055502;28;20428;-71
2023/06/06 06:57:26;;;;;;;1.30;1.10;;;30.50;50.20;;;;;;5055116;28;20510;-74
2023/06/06 06:59:52;;;;;;;0.97;0.90;;;30.90;47.10;;;;;;5055887;28;20738;-72
2023/06/06 07:02:19;;;;;;;1.33;0.80;;;30.90;45.80;;;;;;5055486;28;20408;-72
2023/06/06 07:04:47;;;;;;;1.43;1.33;;;30.70;47.90;;;;;;5054995;28;20432;-72
2023/06/06 07:07:15;;;;;;;1.73;1.10;;;29.90;45.00;;;;;;5055007;28;20421;-72
2023/06/06 07:09:41;;;;;;;1.40;1.30;;;28.90;47.90;;;;;;5055716;28;20492;-71
2023/06/06 07:12:07;;;;;;;1.03;0.93;;;28.30;46.40;;;;;;5055567;28;20487;-73
2023/06/06 07:14:33;;;;;;;3.07;1.13;;;27.60;49.50;;;;;;5055496;28;20772;-72
2023/06/06 07:16:59;;;;;;;1.13;0.80;;;27.60;48.80;;;;;;5055045;28;20498;-72
2023/06/06 07:19:26;;;;;;;1.00;0.90;;;27.80;48.30;;;;;;5055303;28;20437;-72
2023/06/06 07:21:52;;;;;;;0.93;0.93;;;27.60;49.50;;;;;;5055394;28;20166;-70
2023/06/06 07:24:20;;;;;;;0.73;0.63;;;26.80;48.10;;;;;;5055190;28;20462;-73
2023/06/06 07:26:45;;;;;;;1.03;1.03;;;26.20;51.50;;;;;;5055000;28;20944;-72
2023/06/06 07:29:11;;;;;;;1.60;1.00;;;25.90;50.70;;;;;;5055329;28;20506;-70
2023/06/06 07:31:38;;;;;;;0.70;0.70;;;26.20;50.70;;;;;;5055552;28;20181;-73
2023/06/06 07:34:04;;;;;;;0.83;0.83;;;26.70;49.90;;;;;;5054945;28;20255;-71
2023/06/06 07:36:30;;;;;;;1.33;0.93;;;27.00;50.00;;;;;;5054870;28;20409;-73
2023/06/06 07:38:57;;;;;;;1.10;0.90;;;26.80;48.80;;;;;;5055200;28;20423;-74
2023/06/06 07:41:23;;;;;;;1.20;1.10;;;26.40;50.60;;;;;;5054826;28;20400;-74
2023/06/06 07:43:50;;;;;;;1.10;1.00;;;26.50;51.00;;;;;;5054920;28;20388;-72
2023/06/06 07:46:16;;;;;;;1.23;1.20;;;26.60;49.70;;;;;;5053983;28;20392;-74
2023/06/06 07:48:42;;;;;;;1.00;0.97;;;27.70;47.90;;;;;;5054651;28;20479;-72
2023/06/06 07:51:08;;;;;;;0.70;0.70;;;28.70;48.50;;;;;;5054833;28;20432;-74
2023/06/06 07:53:33;;;;;;;1.47;1.17;;;30.00;47.10;;;;;;5054794;28;20185;-74
2023/06/06 07:55:59;;;;;;;1.10;0.90;;;31.90;45.70;;;;;;5052464;28;20200;-74
2023/06/06 07:58:39;;;;;;;1.23;1.13;;;33.30;41.60;;;;;;5054668;28;20235;-73
2023/06/06 08:01:09;;;;;;;0.93;0.93;;;34.40;40.70;;;;;;5054479;28;20247;-74
2023/06/06 08:03:34;;;;;;;1.23;1.13;;;35.50;39.60;;;;;;5054779;28;20433;-75
2023/06/06 08:06:00;;;;;;;1.00;1.00;;;36.50;38.80;;;;;;5054163;28;20452;-74
2023/06/06 08:08:26;;;;;;;1.07;0.90;;;37.50;37.30;;;;;;5054509;28;20170;-74
2023/06/06 08:10:52;;;;;;;1.10;1.00;;;38.20;35.40;;;;;;5054360;28;20603;-74
2023/06/06 08:13:19;;;;;;;1.20;1.10;;;38.10;32.60;;;;;;5054468;28;20264;-73
2023/06/06 08:15:45;;;;;;;0.93;0.93;;;37.60;32.40;;;;;;5053935;28;20527;-72
2023/06/06 08:18:13;;;;;;;0.67;0.67;;;37.30;33.20;;;;;;5054418;28;20543;-73
2023/06/06 08:20:39;;;;;;;0.93;0.80;;;37.10;32.90;;;;;;5054188;28;20893;-75
2023/06/06 08:23:05;;;;;;;1.13;1.03;;;36.60;32.50;;;;;;5054301;28;20916;-73
2023/06/06 08:25:30;;;;;;;1.10;1.03;;;36.10;33.10;;;;;;5053657;28;20436;-73
2023/06/06 08:27:58;;;;;;;2.20;1.57;;;36.00;33.50;;;;;;5054230;28;20184;-75
2023/06/06 08:30:24;;;;;;;1.13;1.00;;;36.40;33.80;;;;;;5054025;28;20174;-74
2023/06/06 08:32:50;;;;;;;1.37;0.70;;;36.80;34.20;;;;;;5053964;28;20404;-73
2023/06/06 08:35:16;;;;;;;1.03;1.00;;;37.40;33.40;;;;;;5053932;28;20202;-74
2023/06/06 08:37:42;;;;;;;2.33;1.10;;;37.50;32.20;;;;;;5053767;28;20449;-74
2023/06/06 08:40:09;;;;;;;0.80;0.80;;;36.90;32.00;;;;;;5053936;28;20415;-74
2023/06/06 08:42:42;;;;;;;0.90;0.80;;;36.80;32.90;;;;;;5054023;28;20178;-73
2023/06/06 08:45:08;;;;;;;1.20;0.90;;;37.10;34.40;;;;;;5053711;28;20810;-75
2023/06/06 08:47:36;;;;;;;0.80;0.80;;;37.60;33.10;;;;;;5053546;28;20413;-74
2023/06/06 08:50:04;;;;;;;1.67;1.10;;;37.10;32.30;;;;;;5052209;28;20471;-75
2023/06/06 08:52:32;;;;;;;1.00;0.93;;;36.60;32.30;;;;;;5053770;28;20831;-72
2023/06/06 08:54:58;;;;;;;1.07;1.00;;;36.00;33.00;;;;;;5053561;28;20464;-75
2023/06/06 08:57:25;;;;;;;1.23;1.13;;;34.00;34.90;;;;;;5052400;28;20571;-73
2023/06/06 08:59:52;;;;;;;1.33;1.17;;;32.70;37.20;;;;;;5053875;28;20405;-75
2023/06/06 09:02:17;;;;;;;0.73;0.73;;;31.70;39.20;;;;;;5053465;28;20769;-72
2023/06/06 09:04:44;;;;;;;0.80;0.70;;;29.30;40.80;;;;;;5053327;28;20527;-71
2023/06/06 09:07:12;;;;;;;1.73;1.20;;;26.80;44.40;;;;;;5053228;28;20181;-74
2023/06/06 09:09:40;;;;;;;1.67;1.00;;;25.30;48.30;;;;;;5053568;28;20397;-72
2023/06/06 09:12:07;;;;;;;0.93;0.90;;;24.60;50.60;;;;;;5053416;28;20412;-72
2023/06/06 09:14:33;;;;;;;1.13;1.07;;;25.30;50.50;;;;;;5053497;28;20511;-73
2023/06/06 09:16:59;;;;;;;0.80;0.80;;;26.00;49.70;;;;;;5053186;28;21020;-72
2023/06/06 09:19:25;;;;;;;2.40;1.20;;;27.00;50.10;;;;;;5053354;28;20245;-72
2023/06/06 09:21:52;;;;;;;1.27;1.27;;;28.90;44.10;;;;;;5053166;28;20547;-72
2023/06/06 09:24:18;;;;;;;0.87;0.83;;;28.70;42.50;;;;;;5053291;28;20423;-73
2023/06/06 09:26:43;;;;;;;2.37;1.17;;;29.10;43.60;;;;;;5053042;28;20506;-73
2023/06/06 09:29:12;;;;;;;1.87;0.97;;;30.10;41.20;;;;;;5053304;28;20437;-73
2023/06/06 09:31:38;;;;;;;1.30;1.20;;;30.80;40.10;;;;;;5053187;28;20261;-73
2023/06/06 09:34:06;;;;;;;0.97;0.87;;;31.30;40.50;;;;;;5053019;28;20558;-74
2023/06/06 09:36:32;;;;;;;1.10;0.90;;;31.90;38.60;;;;;;5053003;28;20630;-73
2023/06/06 09:39:09;;;;;;;0.83;0.70;;;31.80;37.20;;;;;;5053197;28;20448;-73
2023/06/06 09:41:48;;;;;;;0.50;0.50;;;30.30;38.80;;;;;;5053030;28;20491;-73
2023/06/06 09:44:21;;;;;;;1.17;1.17;;;28.40;41.70;;;;;;5053342;28;20428;-73
2023/06/06 09:46:48;;;;;;;1.03;0.97;;;27.50;42.90;;;;;;5052683;28;20404;-74
2023/06/06 09:49:14;;;;;;;1.17;0.80;;;26.10;45.00;;;;;;5052774;28;20470;-73
2023/06/06 09:51:44;;;;;;;0.70;0.70;;;25.30;47.40;;;;;;5053015;28;20428;-74
2023/06/06 09:54:10;;;;;;;1.07;0.70;;;26.20;47.90;;;;;;5052957;28;20221;-73
2023/06/06 09:56:40;;;;;;;0.97;0.80;;;27.90;45.00;;;;;;5052745;28;20441;-72
2023/06/06 09:59:07;;;;;;;1.27;1.17;;;29.10;44.70;;;;;;5053081;28;20408;-74
2023/06/06 10:01:36;;;;;;;1.17;1.07;;;29.90;40.30;;;;;;5052996;28;20402;-72
2023/06/06 10:04:03;;;;;;;0.80;0.80;;;30.50;38.40;;;;;;5052727;28;20419;-72
2023/06/06 10:06:38;;;;;;;0.70;0.70;;;30.90;37.70;;;;;;5052684;28;20432;-73
2023/06/06 10:09:05;;;;;;;0.70;0.70;;;30.40;37.70;;;;;;5054716;28;20404;-72
2023/06/06 10:11:33;;;;;;;1.07;1.03;;;30.10;40.20;;;;;;5056572;28;20404;-73
2023/06/06 10:14:01;;;;;;;1.37;1.03;;;29.00;43.30;;;;;;5053796;28;20916;-72
2023/06/06 10:16:29;;;;;;;1.30;0.70;;;29.40;37.40;;;;;;5054755;28;20419;-74
2023/06/06 10:18:56;;;;;;;0.77;0.77;;;29.30;38.60;;;;;;5054851;28;20459;-74
2023/06/06 10:21:23;;;;;;;1.00;1.00;;;29.30;39.70;;;;;;5053608;28;20974;-72
2023/06/06 10:23:49;;;;;;;0.60;0.50;;;29.60;39.00;;;;;;5055773;28;20412;-71
2023/06/06 10:26:23;;;;;;;1.00;0.80;;;29.20;41.10;;;;;;5056067;28;20386;-72
2023/06/06 10:29:11;;;;;;;0.60;0.60;;;28.70;39.30;;;;;;5054245;28;20221;-71
2023/06/06 10:31:50;;;;;;;0.73;0.70;;;29.20;42.30;;;;;;5054450;28;20783;-73
2023/06/06 10:34:28;;;;;;;0.77;0.77;;;30.00;37.90;;;;;;5055842;28;20428;-72
2023/06/06 10:36:56;;;;;;;0.87;0.77;;;29.90;37.50;;;;;;5055345;28;20420;-74
2023/06/06 10:39:24;;;;;;;0.90;0.70;;;29.00;37.10;;;;;;5052822;28;20404;-71
2023/06/06 10:42:06;;;;;;;0.70;0.70;;;28.50;39.60;;;;;;5056143;28;20778;-73
2023/06/06 10:44:41;;;;;;;1.00;1.00;;;28.30;40.50;;;;;;5056505;28;20432;-71
2023/06/06 10:47:27;;;;;;;0.93;0.80;;;28.00;39.90;;;;;;5055614;28;20393;-72
2023/06/06 10:50:08;;;;;;;1.03;1.00;;;28.10;39.70;;;;;;5055866;28;20424;-73
2023/06/06 10:52:57;;;;;;;0.50;0.50;;;27.30;40.80;;;;;;5055722;28;20400;-72
2023/06/06 10:55:23;;;;;;;1.60;1.10;;;26.20;42.00;;;;;;5055656;28;20432;-73
2023/06/06 10:58:04;;;;;;;0.90;0.90;;;25.60;43.30;;;;;;5055674;28;20479;-72
2023/06/06 11:00:35;;;;;;;1.00;0.70;;;25.60;44.50;;;;;;5054517;28;20173;-72
2023/06/06 11:03:08;;;;;;;0.60;0.60;;;25.50;42.80;;;;;;5055891;28;20407;-72
2023/06/06 11:06:00;;;;;;;0.83;0.70;;;25.50;44.50;;;;;;5054080;28;20775;-72
2023/06/06 11:09:00;;;;;;;0.47;0.47;;;25.40;42.20;;;;;;5053675;28;20383;-71
2023/06/06 11:11:30;;;;;;;1.17;0.70;;;24.90;42.30;;;;;;5055052;28;20424;-72
2023/06/06 11:14:00;;;;;;;0.77;0.73;;;24.50;52.70;;;;;;5055858;28;20405;-72
2023/06/06 11:16:38;;;;;;;0.50;0.50;;;24.20;44.20;;;;;;5055732;28;20394;-71
2023/06/06 11:19:11;;;;;;;0.60;0.60;;;24.20;41.90;;;;;;5055460;28;20781;-72
2023/06/06 11:21:38;;;;;;;1.40;0.87;;;24.30;42.20;;;;;;5054706;28;20406;-71
2023/06/06 11:24:05;;;;;;;0.73;0.73;;;24.30;46.20;;;;;;5055673;28;20395;-72
2023/06/06 11:26:33;;;;;;;1.20;1.10;;;24.30;44.10;;;;;;5052772;28;20382;-72
2023/06/06 11:28:59;;;;;;;0.60;0.60;;;24.10;43.10;;;;;;5054307;28;20904;-72
2023/06/06 11:31:26;;;;;;;1.10;0.77;;;23.80;43.80;;;;;;5054981;28;20459;-72
2023/06/06 11:34:02;;;;;;;1.00;0.93;;;23.40;53.10;;;;;;5055102;28;20386;-72
2023/06/06 11:36:29;;;;;;;0.80;0.73;;;23.50;45.20;;;;;;5054871;28;20404;-72
2023/06/06 11:38:58;;;;;;;0.70;0.70;;;23.80;42.70;;;;;;5055113;28;20814;-71
2023/06/06 11:41:24;;;;;;;0.70;0.70;;;24.20;46.10;;;;;;5054933;28;20410;-71
2023/06/06 11:43:51;;;;;;;0.80;0.80;;;24.60;42.90;;;;;;5054849;28;20428;-72
2023/06/06 11:46:17;;;;;;;0.90;0.63;;;24.80;43.30;;;;;;5054739;28;20379;-73
2023/06/06 11:48:43;;;;;;;1.50;0.93;;;25.00;44.40;;;;;;5054792;28;20869;-73
2023/06/06 11:51:10;;;;;;;2.10;1.17;;;25.00;43.30;;;;;;5054851;28;20466;-73
2023/06/06 11:53:36;;;;;;;0.73;0.70;;;24.60;43.50;;;;;;5054719;28;20163;-70
2023/06/06 11:56:03;;;;;;;0.60;0.60;;;24.50;45.10;;;;;;5054486;28;20431;-72
2023/06/06 11:58:29;;;;;;;0.87;0.83;;;24.30;47.20;;;;;;5054356;28;20458;-71
2023/06/06 12:00:57;;;;;;;0.73;0.73;;;24.30;46.90;;;;;;5054550;28;20794;-70
2023/06/06 12:03:24;;;;;;;1.27;1.27;;;24.30;48.00;;;;;;5054386;28;20383;-72
2023/06/06 12:06:06;;;;;;;1.17;0.97;;;24.10;48.70;;;;;;5054269;28;20443;-71
2023/06/06 12:08:37;;;;;;;0.70;0.70;;;23.90;49.70;;;;;;5053399;28;20399;-75
2023/06/06 12:11:26;;;;;;;1.83;1.30;;;23.80;51.70;;;;;;5054372;28;20382;-75
2023/06/06 12:13:53;;;;;;;1.13;1.03;;;23.70;55.70;;;;;;5054363;28;20432;-73
2023/06/06 12:16:24;;;;;;;0.77;0.77;;;23.60;50.50;;;;;;5054174;28;20396;-72
2023/06/06 12:18:50;;;;;;;0.90;0.90;;;23.50;51.60;;;;;;5054022;28;20808;-70
2023/06/06 12:21:17;;;;;;;0.80;0.80;;;23.30;53.00;;;;;;5054120;28;20487;-71
2023/06/06 12:23:43;;;;;;;0.90;0.90;;;23.90;57.30;;;;;;5054117;28;20397;-71
2023/06/06 12:26:11;;;;;;;1.57;1.47;;;22.80;57.00;;;;;;5053876;28;20798;-72
2023/06/06 12:28:58;;;;;;;0.97;0.80;;;22.70;57.70;;;;;;5054196;28;20404;-74
2023/06/06 12:31:26;;;;;;;0.63;0.60;;;22.60;58.40;;;;;;5053998;28;20400;-71
2023/06/06 12:33:53;;;;;;;1.40;1.30;;;22.70;61.10;;;;;;5054103;28;20379;-73
2023/06/06 12:36:21;;;;;;;0.77;0.77;;;22.70;57.30;;;;;;5053802;28;20401;-74
2023/06/06 12:39:01;;;;;;;0.93;0.93;;;22.80;59.70;;;;;;5053852;28;20949;-73
2023/06/06 12:41:40;;;;;;;0.50;0.50;;;22.90;56.40;;;;;;5053804;28;20407;-75
2023/06/06 12:44:13;;;;;;;0.57;0.57;;;22.90;53.30;;;;;;5053654;28;20425;-72
2023/06/06 12:46:40;;;;;;;0.70;0.70;;;22.80;53.50;;;;;;5053625;28;20399;-71
2023/06/06 12:49:06;;;;;;;1.33;1.23;;;22.80;55.80;;;;;;5053555;28;20431;-73
2023/06/06 12:51:34;;;;;;;1.10;1.10;;;22.80;52.80;;;;;;5053803;28;20491;-73